createdAt,value
2018-11-20T00:02:22.798Z,29.30
2018-11-20T00:05:18.949Z,28.87
2018-11-20T00:08:26.290Z,28.77
2018-11-20T00:11:33.683Z,29.37
2018-11-20T00:14:27.491Z,26.20
2018-11-20T00:17:34.881Z,29.23
2018-11-20T00:20:36.208Z,24.20
2018-11-20T00:23:43.591Z,30.27
2018-11-20T00:26:50.944Z,28.10
2018-11-20T00:29:58.336Z,30.27
2018-11-20T00:32:56.901Z,26.97
2018-11-20T00:36:04.299Z,27.17
2018-11-20T00:39:11.690Z,28.70
2018-11-20T00:42:19.059Z,30.60
2018-11-20T00:45:26.499Z,28.37
2018-11-20T00:48:06.377Z,30.80
2018-11-20T00:50:54.881Z,31.43
2018-11-20T00:54:02.387Z,28.27
2018-11-20T00:57:10.952Z,28.00
2018-11-20T01:00:18.308Z,29.17
2018-11-20T01:03:25.700Z,27.37
2018-11-20T01:06:33.073Z,29.97
2018-11-20T01:09:40.460Z,25.23
2018-11-20T01:12:47.885Z,25.97
2018-11-20T01:15:55.312Z,25.47
2018-11-20T01:19:02.705Z,27.60
2018-11-20T01:22:10.061Z,30.10
2018-11-20T01:24:58.520Z,27.87
2018-11-20T01:28:05.893Z,27.23
2018-11-20T01:31:13.281Z,28.53
2018-11-20T01:34:01.705Z,26.40
2018-11-20T01:37:09.091Z,28.67
2018-11-20T01:40:16.446Z,28.17
2018-11-20T01:43:23.850Z,28.87
2018-11-20T01:46:31.213Z,28.17
2018-11-20T01:49:38.588Z,29.10
2018-11-20T01:52:45.983Z,28.00
2018-11-20T01:55:53.348Z,26.60
2018-11-20T01:59:00.764Z,29.93
2018-11-20T02:02:08.116Z,27.87
2018-11-20T02:05:15.512Z,32.33
2018-11-20T02:08:22.871Z,26.67
2018-11-20T02:11:21.209Z,28.43
2018-11-20T02:14:27.712Z,29.90
2018-11-20T02:17:42.140Z,31.17
2018-11-20T02:20:49.510Z,26.67
2018-11-20T02:23:56.864Z,27.70
2018-11-20T02:27:04.248Z,26.37
2018-11-20T02:30:11.646Z,26.30
2018-11-20T02:33:19.003Z,28.57
2018-11-20T02:36:26.395Z,26.23
2018-11-20T02:39:33.773Z,32.27
2018-11-20T02:42:41.164Z,25.80
2018-11-20T02:45:48.518Z,29.13
2018-11-20T02:48:55.903Z,29.33
2018-11-20T02:51:44.457Z,29.20
2018-11-20T02:54:51.773Z,31.93
2018-11-20T02:57:59.158Z,31.30
2018-11-20T03:01:05.910Z,28.73
2018-11-20T03:04:13.266Z,26.57
2018-11-20T03:07:20.698Z,28.53
2018-11-20T03:10:28.144Z,28.27
2018-11-20T03:13:16.563Z,25.40
2018-11-20T03:16:05.125Z,31.10
2018-11-20T03:19:12.476Z,31.97
2018-11-20T03:22:19.856Z,26.27
2018-11-20T03:25:46.137Z,33.33
2018-11-20T03:29:12.440Z,30.10
2018-11-20T03:32:19.878Z,29.40
2018-11-20T03:35:27.236Z,27.13
2018-11-20T03:38:34.666Z,26.30
2018-11-20T03:41:42.042Z,31.60
2018-11-20T03:44:42.570Z,28.17
2018-11-20T03:47:31.023Z,28.90
2018-11-20T03:50:38.379Z,28.63
2018-11-20T03:53:45.769Z,32.50
2018-11-20T03:56:53.157Z,29.17
2018-11-20T04:00:00.551Z,31.57
2018-11-20T04:03:07.937Z,31.63
2018-11-20T04:06:15.297Z,31.20
2018-11-20T04:09:22.674Z,30.40
2018-11-20T04:12:30.044Z,31.20
2018-11-20T04:15:18.505Z,29.07
2018-11-20T04:18:06.927Z,28.40
2018-11-20T04:21:14.423Z,28.10
2018-11-20T04:24:21.821Z,27.80
2018-11-20T04:27:29.175Z,29.07
2018-11-20T04:30:58.519Z,26.67
2018-11-20T04:34:05.891Z,30.27
2018-11-20T04:37:14.224Z,27.87
2018-11-20T04:40:21.572Z,27.73
2018-11-20T04:43:29.435Z,29.87
2018-11-20T04:46:36.815Z,28.43
2018-11-20T04:49:44.229Z,33.10
2018-11-20T04:52:51.643Z,30.27
2018-11-20T04:55:58.952Z,32.13
2018-11-20T05:02:19.418Z,30.00
2018-11-20T05:05:26.808Z,30.57
2018-11-20T05:08:34.165Z,26.17
2018-11-20T05:11:22.632Z,29.87
2018-11-20T05:14:11.053Z,33.43
2018-11-20T05:16:59.510Z,25.23
2018-11-20T05:20:07.278Z,29.37
2018-11-20T05:23:14.635Z,26.37
2018-11-20T05:26:22.043Z,29.60
2018-11-20T05:29:29.421Z,29.13
2018-11-20T05:32:20.575Z,28.97
2018-11-20T05:35:09.095Z,25.67
2018-11-20T05:38:09.303Z,25.57
2018-11-20T05:40:55.372Z,26.50
2018-11-20T05:43:52.837Z,28.23
2018-11-20T05:46:43.923Z,30.23
2018-11-20T05:49:41.431Z,28.80
2018-11-20T05:52:24.712Z,33.07
2018-11-20T05:55:01.798Z,25.33
2018-11-20T05:57:48.196Z,32.93
2018-11-20T06:00:35.345Z,25.70
2018-11-20T06:03:23.877Z,25.67
2018-11-20T06:06:27.492Z,25.37
2018-11-20T06:09:14.598Z,26.13
2018-11-20T06:12:09.051Z,27.53
2018-11-20T06:14:56.072Z,24.87
2018-11-20T06:17:38.912Z,26.33
2018-11-20T06:20:39.481Z,24.20
2018-11-20T06:23:26.584Z,24.40
2018-11-20T06:26:30.188Z,24.63
2018-11-20T06:29:17.157Z,25.77
2018-11-20T06:32:04.248Z,24.30
2018-11-20T06:34:51.278Z,21.70
2018-11-20T06:37:33.033Z,25.03
2018-11-20T06:40:27.755Z,25.27
2018-11-20T06:43:25.148Z,22.57
2018-11-20T06:46:10.797Z,22.80
2018-11-20T06:49:04.995Z,22.30
2018-11-20T06:51:52.017Z,22.67
2018-11-20T06:54:40.526Z,22.70
2018-11-20T06:57:22.124Z,21.83
2018-11-20T07:00:08.984Z,20.47
2018-11-20T07:02:57.546Z,22.33
2018-11-20T07:05:39.177Z,21.70
2018-11-20T07:08:36.826Z,22.00
2018-11-20T07:11:16.952Z,23.07
2018-11-20T07:14:17.679Z,18.97
2018-11-20T07:17:12.213Z,18.23
2018-11-20T07:20:03.458Z,20.70
2018-11-20T07:22:50.317Z,19.73
2018-11-20T07:25:37.475Z,19.47
2018-11-20T07:28:38.042Z,25.43
2018-11-20T07:31:41.381Z,18.77
2018-11-20T07:34:30.324Z,20.00
2018-11-20T07:37:19.067Z,16.97
2018-11-20T07:40:25.390Z,22.97
2018-11-20T07:43:28.751Z,19.10
2018-11-20T07:46:28.990Z,15.47
2018-11-20T07:49:21.721Z,16.97
2018-11-20T07:52:10.249Z,17.73
2018-11-20T07:55:12.946Z,16.13
2018-11-20T07:58:04.309Z,18.57
2018-11-20T08:00:41.037Z,18.80
2018-11-20T08:03:31.128Z,17.53
2018-11-20T08:06:23.047Z,17.97
2018-11-20T08:09:10.272Z,16.57
2018-11-20T08:12:04.819Z,19.77
2018-11-20T08:15:05.293Z,16.00
2018-11-20T08:17:52.488Z,17.27
2018-11-20T08:20:55.891Z,19.77
2018-11-20T08:27:15.741Z,20.83
2018-11-20T08:30:15.935Z,18.83
2018-11-20T08:36:23.450Z,19.93
2018-11-20T08:39:30.445Z,21.37
2018-11-20T08:42:37.381Z,23.00
2018-11-20T08:45:44.720Z,20.87
2018-11-20T08:48:32.423Z,24.23
2018-11-20T08:51:39.321Z,21.27
2018-11-20T08:54:46.300Z,20.63
2018-11-20T08:57:53.243Z,21.73
2018-11-20T09:01:00.237Z,22.60
2018-11-20T09:04:07.165Z,27.27
2018-11-20T09:07:14.143Z,26.03
2018-11-20T09:10:21.141Z,26.20
2018-11-20T09:13:28.095Z,25.67
2018-11-20T09:16:35.054Z,24.93
2018-11-20T09:19:32.077Z,26.67
2018-11-20T09:22:39.017Z,26.53
2018-11-20T09:25:46.070Z,33.53
2018-11-20T09:28:52.969Z,26.20
2018-11-20T09:31:59.909Z,22.40
2018-11-20T09:35:06.992Z,18.67
2018-11-20T09:38:13.836Z,20.67
2018-11-20T09:41:10.592Z,19.23
2018-11-20T09:44:18.968Z,19.30
2018-11-20T09:47:25.944Z,18.00
2018-11-20T09:50:33.823Z,18.47
2018-11-20T09:53:40.810Z,17.43
2018-11-20T09:56:38.369Z,17.43
2018-11-20T09:59:26.091Z,18.73
2018-11-20T10:02:33.027Z,18.17
2018-11-20T10:05:40.000Z,15.83
2018-11-20T10:08:47.030Z,15.93
2018-11-20T10:11:53.950Z,17.90
2018-11-20T10:15:01.204Z,16.60
2018-11-20T10:18:08.010Z,14.57
2018-11-20T10:21:15.040Z,13.47
2018-11-20T10:24:13.848Z,14.77
2018-11-20T10:27:20.822Z,14.33
2018-11-20T10:30:27.773Z,14.10
2018-11-20T10:33:34.767Z,12.63
2018-11-20T10:36:41.701Z,13.40
2018-11-20T10:39:48.675Z,12.90
2018-11-20T10:42:55.678Z,12.70
2018-11-20T10:46:02.749Z,11.40
2018-11-20T10:48:50.309Z,11.00
2018-11-20T10:51:57.260Z,10.27
2018-11-20T10:55:04.233Z,10.67
2018-11-20T10:58:11.246Z,11.80
2018-11-20T11:01:18.188Z,10.93
2018-11-20T11:04:25.216Z,10.27
2018-11-20T11:07:32.253Z,11.10
2018-11-20T11:10:39.973Z,10.77
2018-11-20T11:13:46.997Z,12.20
2018-11-20T11:16:53.946Z,11.43
2018-11-20T11:20:00.941Z,12.13
2018-11-20T11:23:00.386Z,11.73
2018-11-20T11:26:05.555Z,11.67
2018-11-20T11:29:12.573Z,12.13
2018-11-20T11:32:19.512Z,11.00
2018-11-20T11:35:26.506Z,11.60
2018-11-20T11:38:33.453Z,10.40
2018-11-20T11:41:40.467Z,12.03
2018-11-20T11:44:47.470Z,11.23
2018-11-20T11:47:54.417Z,10.13
2018-11-20T11:51:01.398Z,10.17
2018-11-20T11:54:08.372Z,10.67
2018-11-20T11:57:15.354Z,11.83
2018-11-20T12:00:02.967Z,11.30
2018-11-20T12:06:16.243Z,11.30
2018-11-20T12:09:24.095Z,14.03
2018-11-20T12:12:31.059Z,12.43
2018-11-20T12:15:18.705Z,11.33
2018-11-20T12:18:25.784Z,11.53
2018-11-20T12:21:32.723Z,11.77
2018-11-20T12:24:20.429Z,10.97
2018-11-20T12:27:27.405Z,11.30
2018-11-20T12:30:34.792Z,11.40
2018-11-20T12:33:42.127Z,11.03
2018-11-20T12:36:48.938Z,13.33
2018-11-20T12:39:44.204Z,12.17
2018-11-20T12:42:50.958Z,11.27
2018-11-20T12:45:57.652Z,11.67
2018-11-20T12:48:46.395Z,9.63
2018-11-20T12:51:46.359Z,11.30
2018-11-20T12:54:53.113Z,11.50
2018-11-20T12:58:00.564Z,11.47
2018-11-20T13:01:07.520Z,9.87
2018-11-20T13:03:55.158Z,9.57
2018-11-20T13:07:02.952Z,10.70
2018-11-20T13:10:09.072Z,10.37
2018-11-20T13:13:18.058Z,9.43
2018-11-20T13:16:03.654Z,10.00
2018-11-20T13:19:10.606Z,10.57
2018-11-20T13:22:17.576Z,8.93
2018-11-20T13:25:24.726Z,13.83
2018-11-20T13:28:31.735Z,9.00
2018-11-20T13:31:38.727Z,9.70
2018-11-20T13:34:47.822Z,8.20
2018-11-20T13:37:52.651Z,8.90
2018-11-20T13:41:18.915Z,9.27
2018-11-20T13:44:25.891Z,9.70
2018-11-20T13:47:32.828Z,8.73
2018-11-20T13:50:39.818Z,8.93
2018-11-20T13:53:46.828Z,9.10
2018-11-20T13:56:53.768Z,9.17
2018-11-20T14:00:01.568Z,8.97
2018-11-20T14:02:48.338Z,9.10
2018-11-20T14:05:55.352Z,11.23
2018-11-20T14:09:02.298Z,9.30
2018-11-20T14:12:09.272Z,9.00
2018-11-20T14:15:16.214Z,8.47
2018-11-20T14:18:23.230Z,9.60
2018-11-20T14:21:30.198Z,9.47
2018-11-20T14:24:37.140Z,9.37
2018-11-20T14:27:44.114Z,9.70
2018-11-20T14:30:51.068Z,9.83
2018-11-20T14:33:59.111Z,10.43
2018-11-20T14:37:06.063Z,11.63
2018-11-20T14:40:13.036Z,10.83
2018-11-20T14:43:20.088Z,11.17
2018-11-20T14:46:27.031Z,10.23
2018-11-20T14:49:34.017Z,12.13
2018-11-20T14:52:40.984Z,13.40
2018-11-20T14:55:39.665Z,14.00
2018-11-20T14:58:46.607Z,12.90
2018-11-20T15:01:53.579Z,11.90
2018-11-20T15:05:00.523Z,12.67
2018-11-20T15:08:07.504Z,13.00
2018-11-20T15:11:14.480Z,12.83
2018-11-20T15:14:21.447Z,14.17
2018-11-20T15:17:28.475Z,12.80
2018-11-20T15:20:35.410Z,12.10
2018-11-20T15:23:42.386Z,13.90
2018-11-20T15:26:49.345Z,13.30
2018-11-20T15:29:56.323Z,13.27
2018-11-20T15:33:03.263Z,14.17
2018-11-20T15:36:10.243Z,13.50
2018-11-20T15:39:17.768Z,15.37
2018-11-20T15:42:24.735Z,13.50
2018-11-20T15:45:31.686Z,14.90
2018-11-20T15:48:38.671Z,14.23
2018-11-20T15:51:45.412Z,13.57
2018-11-20T15:54:52.298Z,14.07
2018-11-20T15:57:59.107Z,15.50
2018-11-20T16:01:06.057Z,14.20
2018-11-20T16:10:38.201Z,15.23
2018-11-20T16:13:45.190Z,14.40
2018-11-20T16:16:43.470Z,14.27
2018-11-20T16:19:50.545Z,14.50
2018-11-20T16:22:57.517Z,15.13
2018-11-20T16:26:04.497Z,15.57
2018-11-20T16:29:11.565Z,15.27
2018-11-20T16:32:18.576Z,16.13
2018-11-20T16:35:26.711Z,16.40
2018-11-20T16:38:33.692Z,16.53
2018-11-20T16:41:42.323Z,16.40
2018-11-20T16:44:47.712Z,16.43
2018-11-20T16:47:54.801Z,17.33
2018-11-20T16:51:01.755Z,17.23
2018-11-20T16:54:08.742Z,15.60
2018-11-20T16:57:15.921Z,15.97
2018-11-20T17:00:23.420Z,16.63
2018-11-20T17:03:30.376Z,16.73
2018-11-20T17:06:37.363Z,16.93
2018-11-20T17:09:44.311Z,15.17
2018-11-20T17:12:31.958Z,17.27
2018-11-20T17:15:38.920Z,17.17
2018-11-20T17:18:38.472Z,16.60
2018-11-20T17:21:45.398Z,16.97
2018-11-20T17:24:52.366Z,17.10
2018-11-20T17:27:59.373Z,17.33
2018-11-20T17:31:06.322Z,16.37
2018-11-20T17:34:13.324Z,17.77
2018-11-20T17:37:20.283Z,16.67
2018-11-20T17:40:27.880Z,17.77
2018-11-20T17:43:34.838Z,17.83
2018-11-20T17:46:22.513Z,19.83
2018-11-20T17:49:29.468Z,17.97
2018-11-20T17:52:26.364Z,17.87
2018-11-20T17:55:33.356Z,17.53
2018-11-20T18:01:11.280Z,20.27
2018-11-20T18:04:00.458Z,26.23
2018-11-20T18:06:48.161Z,28.57
2018-11-20T18:09:34.342Z,52.70
2018-11-20T18:12:20.337Z,57.10
2018-11-20T18:15:05.692Z,65.30
2018-11-20T18:17:52.007Z,54.50
2018-11-20T18:20:45.283Z,38.27
2018-11-20T18:23:23.676Z,38.33
2018-11-20T18:26:13.882Z,32.13
2018-11-20T18:29:20.868Z,25.07
2018-11-20T18:32:27.858Z,26.07
2018-11-20T18:35:34.806Z,25.20
2018-11-20T18:38:41.770Z,28.13
2018-11-20T18:41:29.459Z,34.20
2018-11-20T18:44:36.417Z,34.70
2018-11-20T18:47:43.396Z,30.93
2018-11-20T18:50:50.401Z,31.87
2018-11-20T18:53:48.735Z,28.90
2018-11-20T18:56:55.730Z,31.83
2018-11-20T19:00:02.689Z,31.67
2018-11-20T19:03:09.712Z,30.80
2018-11-20T19:06:16.684Z,28.37
2018-11-20T19:09:25.452Z,58.67
2018-11-20T19:12:32.404Z,63.37
2018-11-20T19:15:39.400Z,50.97
2018-11-20T19:18:46.394Z,38.23
2018-11-20T19:34:13.753Z,33.60
2018-11-20T19:37:13.849Z,28.87
2018-11-20T19:40:13.353Z,29.83
2018-11-20T19:43:13.350Z,33.70
2018-11-20T19:46:13.050Z,32.90
2018-11-20T19:49:00.765Z,27.53
2018-11-20T19:52:07.729Z,27.57
2018-11-20T19:55:14.734Z,57.57
2018-11-20T19:58:21.692Z,63.40
2018-11-20T20:01:28.678Z,63.73
2018-11-20T20:04:35.659Z,75.17
2018-11-20T20:10:54.843Z,31.23
2018-11-20T20:14:01.825Z,30.13
2018-11-20T20:17:08.809Z,31.93
2018-11-20T20:20:15.791Z,46.20
2018-11-20T20:23:22.788Z,34.50
2018-11-20T20:26:29.790Z,27.97
2018-11-20T20:29:36.744Z,34.73
2018-11-20T20:32:43.774Z,32.60
2018-11-20T20:35:52.823Z,31.27
2018-11-20T20:38:57.727Z,27.80
2018-11-20T20:42:04.692Z,31.00
2018-11-20T20:45:11.673Z,34.07
2018-11-20T20:48:18.660Z,28.27
2018-11-20T20:51:06.357Z,27.90
2018-11-20T20:54:13.402Z,31.97
2018-11-20T20:57:24.719Z,25.10
2018-11-20T21:00:28.664Z,28.43
2018-11-20T21:03:35.651Z,24.23
2018-11-20T21:06:42.648Z,27.60
2018-11-20T21:09:49.633Z,31.87
2018-11-20T21:12:56.616Z,22.37
2018-11-20T21:16:03.638Z,26.07
2018-11-20T21:19:10.662Z,70.70
2018-11-20T21:22:17.678Z,29.83
2018-11-20T21:24:55.202Z,26.17
2018-11-20T21:28:02.167Z,23.70
2018-11-20T21:31:02.585Z,28.13
2018-11-20T21:34:09.591Z,24.73
2018-11-20T21:37:16.596Z,24.63
2018-11-20T21:40:24.048Z,30.83
2018-11-20T21:43:30.978Z,28.57
2018-11-20T21:46:37.940Z,28.07
2018-11-20T21:49:44.897Z,31.93
2018-11-20T21:52:51.870Z,31.20
2018-11-20T21:55:58.845Z,31.50
2018-11-20T21:59:06.653Z,27.77
2018-11-20T22:02:13.688Z,29.40
2018-11-20T22:05:20.640Z,27.00
2018-11-20T22:08:27.718Z,27.57
2018-11-20T22:11:34.625Z,29.10
2018-11-20T22:14:41.621Z,36.13
2018-11-20T22:17:29.236Z,24.37
2018-11-20T22:20:36.257Z,57.87
2018-11-20T22:23:43.208Z,26.83
2018-11-20T22:26:50.197Z,27.10
2018-11-20T22:29:57.159Z,26.13
2018-11-20T22:33:04.141Z,25.57
2018-11-20T22:36:11.221Z,23.87
2018-11-20T22:39:18.173Z,23.63
2018-11-20T22:42:25.165Z,25.40
2018-11-20T22:45:32.122Z,23.33
2018-11-20T22:48:39.101Z,24.27
2018-11-20T22:51:46.054Z,24.30
2018-11-20T22:54:53.029Z,26.50
2018-11-20T22:58:00.036Z,25.87
2018-11-20T23:01:07.023Z,28.83
2018-11-20T23:04:14.004Z,26.50
2018-11-20T23:07:20.905Z,29.97
2018-11-20T23:10:08.852Z,29.60
2018-11-20T23:12:56.799Z,29.70
2018-11-20T23:15:44.703Z,26.67
2018-11-20T23:18:32.572Z,24.33
2018-11-20T23:21:20.467Z,26.43
2018-11-20T23:24:08.331Z,25.93
2018-11-20T23:26:56.245Z,24.67
2018-11-20T23:29:44.160Z,21.23
2018-11-20T23:32:32.059Z,27.30
2018-11-20T23:35:19.969Z,24.80
2018-11-20T23:38:08.000Z,22.73
2018-11-20T23:40:55.871Z,27.77
2018-11-20T23:43:43.756Z,24.50
2018-11-20T23:46:31.648Z,30.43
2018-11-20T23:49:00.210Z,25.57
2018-11-20T23:51:48.083Z,27.83
2018-11-20T23:54:35.993Z,26.60
2018-11-20T23:57:23.860Z,22.77
